createdAt,value
2017-07-14T00:02:23.346Z,57.10
2017-07-14T00:04:50.524Z,57.20
2017-07-14T00:07:16.916Z,57.20
2017-07-14T00:09:44.052Z,56.70
2017-07-14T00:12:10.485Z,57.20
2017-07-14T00:14:36.889Z,57.80
2017-07-14T00:17:03.266Z,57.80
2017-07-14T00:19:30.414Z,57.80
2017-07-14T00:21:56.845Z,57.80
2017-07-14T00:24:24.008Z,57.10
2017-07-14T00:26:51.131Z,58.20
2017-07-14T00:29:17.556Z,58.80
2017-07-14T00:31:43.941Z,57.80
2017-07-14T00:34:10.361Z,58.20
2017-07-14T00:36:36.776Z,58.80
2017-07-14T00:39:03.963Z,59.90
2017-07-14T00:41:30.485Z,59.80
2017-07-14T00:43:56.872Z,60.30
2017-07-14T00:46:23.285Z,61.30
2017-07-14T00:48:49.708Z,62.70
2017-07-14T00:51:16.089Z,63.50
2017-07-14T00:53:43.220Z,62.70
2017-07-14T00:56:09.649Z,62.70
2017-07-14T00:58:36.032Z,62.80
2017-07-14T01:01:02.427Z,63.30
2017-07-14T01:03:28.838Z,63.00
2017-07-14T01:05:55.218Z,62.20
2017-07-14T01:08:21.640Z,62.50
2017-07-14T01:10:48.800Z,62.10
2017-07-14T01:13:15.185Z,62.10
2017-07-14T01:15:41.620Z,62.10
2017-07-14T01:18:08.007Z,62.90
2017-07-14T01:20:34.400Z,61.90
2017-07-14T01:23:00.824Z,61.80
2017-07-14T01:25:27.204Z,61.30
2017-07-14T01:27:53.632Z,62.60
2017-07-14T01:30:20.037Z,63.20
2017-07-14T01:32:46.464Z,63.80
2017-07-14T01:35:12.884Z,64.10
2017-07-14T01:37:39.280Z,64.10
2017-07-14T01:40:05.733Z,64.00
2017-07-14T01:42:39.269Z,63.50
2017-07-14T01:45:05.726Z,63.50
2017-07-14T01:47:32.212Z,62.60
2017-07-14T01:49:58.664Z,64.50
2017-07-14T01:52:25.093Z,64.30
2017-07-14T01:54:51.557Z,63.20
2017-07-14T01:57:18.012Z,62.90
2017-07-14T01:59:44.453Z,62.20
2017-07-14T02:02:10.928Z,62.80
2017-07-14T02:04:37.384Z,62.00
2017-07-14T02:07:03.846Z,62.20
2017-07-14T02:09:30.379Z,62.40
2017-07-14T02:12:12.876Z,62.60
2017-07-14T02:14:39.331Z,61.90
2017-07-14T02:17:05.757Z,62.60
2017-07-14T02:19:32.217Z,62.30
2017-07-14T02:21:58.665Z,62.70
2017-07-14T02:24:25.091Z,63.00
2017-07-14T02:26:51.780Z,63.60
2017-07-14T02:29:18.245Z,64.40
2017-07-14T02:31:44.701Z,64.40
2017-07-14T02:34:11.132Z,65.00
2017-07-14T02:36:37.616Z,65.60
2017-07-14T02:39:04.077Z,67.00
2017-07-14T02:41:30.552Z,67.70
2017-07-14T02:43:56.960Z,67.10
2017-07-14T02:46:23.458Z,66.40
2017-07-14T02:48:49.889Z,68.00
2017-07-14T02:51:16.365Z,67.80
2017-07-14T02:53:42.800Z,67.10
2017-07-14T02:56:09.264Z,67.30
2017-07-14T02:58:36.476Z,66.90
2017-07-14T03:01:02.927Z,66.80
2017-07-14T03:03:29.385Z,67.40
2017-07-14T03:05:56.565Z,67.50
2017-07-14T03:08:23.129Z,67.50
2017-07-14T03:10:49.589Z,68.50
2017-07-14T03:13:16.026Z,67.70
2017-07-14T03:15:42.505Z,65.60
2017-07-14T03:18:08.924Z,65.00
2017-07-14T03:20:35.349Z,66.00
2017-07-14T03:23:01.823Z,66.50
2017-07-14T03:25:28.261Z,69.10
2017-07-14T03:27:54.761Z,68.60
2017-07-14T03:30:21.261Z,69.00
2017-07-14T03:32:48.432Z,67.60
2017-07-14T03:35:14.943Z,67.60
2017-07-14T03:37:41.385Z,68.00
2017-07-14T03:40:08.609Z,68.20
2017-07-14T03:42:35.075Z,68.00
2017-07-14T03:45:02.264Z,68.10
2017-07-14T03:47:28.731Z,68.10
2017-07-14T03:49:55.170Z,67.10
2017-07-14T03:52:21.604Z,68.80
2017-07-14T03:54:48.081Z,66.70
2017-07-14T03:57:14.716Z,65.20
2017-07-14T03:59:41.156Z,64.80
2017-07-14T04:02:07.589Z,64.60
2017-07-14T04:04:34.024Z,64.30
2017-07-14T04:07:00.464Z,65.50
2017-07-14T04:09:26.856Z,65.30
2017-07-14T04:11:53.273Z,65.00
2017-07-14T04:14:19.700Z,66.30
2017-07-14T04:16:46.097Z,66.40
2017-07-14T04:19:12.480Z,64.90
2017-07-14T04:21:39.640Z,63.50
2017-07-14T04:24:06.780Z,62.10
2017-07-14T04:26:33.221Z,62.10
2017-07-14T04:29:00.376Z,63.40
2017-07-14T04:31:27.521Z,62.00
2017-07-14T04:33:54.681Z,62.40
2017-07-14T04:36:21.816Z,61.40
2017-07-14T04:38:48.957Z,61.50
2017-07-14T04:41:15.368Z,61.40
2017-07-14T04:43:41.755Z,61.00
2017-07-14T04:46:15.236Z,59.20
2017-07-14T04:48:42.409Z,57.60
2017-07-14T04:51:08.844Z,57.60
2017-07-14T04:53:35.221Z,58.50
2017-07-14T04:56:01.657Z,59.20
2017-07-14T04:58:28.054Z,61.60
2017-07-14T05:00:54.449Z,60.90
2017-07-14T05:03:21.581Z,59.10
2017-07-14T05:05:47.977Z,59.10
2017-07-14T05:08:14.404Z,60.30
2017-07-14T05:10:40.795Z,58.20
2017-07-14T05:13:07.959Z,59.40
2017-07-14T05:15:34.343Z,59.30
2017-07-14T05:18:00.745Z,57.90
2017-07-14T05:20:27.166Z,59.10
2017-07-14T05:22:53.561Z,57.50
2017-07-14T05:25:19.985Z,59.20
2017-07-14T05:27:46.367Z,59.30
2017-07-14T05:30:12.792Z,59.50
2017-07-14T05:32:39.217Z,58.60
2017-07-14T05:35:05.612Z,59.20
2017-07-14T05:37:32.019Z,58.70
2017-07-14T05:39:58.404Z,57.30
2017-07-14T05:42:25.589Z,59.70
2017-07-14T05:44:51.994Z,59.70
2017-07-14T05:47:18.389Z,58.80
2017-07-14T05:49:44.793Z,59.40
2017-07-14T05:52:11.205Z,54.40
2017-07-14T05:54:37.639Z,54.30
2017-07-14T05:57:04.059Z,52.40
2017-07-14T05:59:30.436Z,55.00
2017-07-14T06:01:56.862Z,54.40
2017-07-14T06:04:23.357Z,54.00
2017-07-14T06:06:49.852Z,55.50
2017-07-14T06:09:17.136Z,53.00
2017-07-14T06:11:43.655Z,52.90
2017-07-14T06:14:10.130Z,53.00
2017-07-14T06:16:36.653Z,56.40
2017-07-14T06:19:03.084Z,57.10
2017-07-14T06:21:29.579Z,55.50
2017-07-14T06:23:56.727Z,57.40
2017-07-14T06:26:23.249Z,57.40
2017-07-14T06:28:49.741Z,58.60
2017-07-14T06:31:16.222Z,56.30
2017-07-14T06:33:42.741Z,61.00
2017-07-14T06:36:09.196Z,59.80
2017-07-14T06:38:35.707Z,63.30
2017-07-14T06:41:02.160Z,65.80
2017-07-14T06:43:28.644Z,70.50
2017-07-14T06:45:55.051Z,73.20
2017-07-14T06:48:21.573Z,70.40
2017-07-14T06:50:48.741Z,69.80
2017-07-14T06:53:15.957Z,69.70
2017-07-14T06:55:42.388Z,69.70
2017-07-14T06:58:08.892Z,68.40
2017-07-14T07:00:35.375Z,70.00
2017-07-14T07:03:02.648Z,66.40
2017-07-14T07:05:29.137Z,66.40
2017-07-14T07:07:55.589Z,66.70
2017-07-14T07:10:22.046Z,65.60
2017-07-14T07:12:49.217Z,60.10
2017-07-14T07:15:15.689Z,60.10
2017-07-14T07:17:42.949Z,62.30
2017-07-14T07:20:09.399Z,62.20
2017-07-14T07:22:36.625Z,60.80
2017-07-14T07:25:03.226Z,59.90
2017-07-14T07:27:29.729Z,61.80
2017-07-14T07:29:56.873Z,63.60
2017-07-14T07:32:23.372Z,63.30
2017-07-14T07:34:49.780Z,61.80
2017-07-14T07:37:16.305Z,62.90
2017-07-14T07:39:42.712Z,64.30
2017-07-14T07:42:09.231Z,61.40
2017-07-14T07:44:35.759Z,62.80
2017-07-14T07:47:08.202Z,62.40
2017-07-14T07:49:34.801Z,62.70
2017-07-14T07:52:02.079Z,62.30
2017-07-14T07:54:28.547Z,64.20
2017-07-14T07:56:54.988Z,61.70
2017-07-14T07:59:21.501Z,62.00
2017-07-14T08:01:47.957Z,61.80
2017-07-14T08:04:14.360Z,61.00
2017-07-14T08:06:40.870Z,60.60
2017-07-14T08:09:07.458Z,61.90
2017-07-14T08:11:34.007Z,59.80
2017-07-14T08:14:01.243Z,61.90
2017-07-14T08:16:27.701Z,61.00
2017-07-14T08:18:54.207Z,60.70
2017-07-14T08:21:20.632Z,57.30
2017-07-14T08:23:47.165Z,58.50
2017-07-14T08:26:13.574Z,59.60
2017-07-14T08:28:40.059Z,59.60
2017-07-14T08:31:07.248Z,59.60
2017-07-14T08:33:34.464Z,56.60
2017-07-14T08:36:01.730Z,60.60
2017-07-14T08:38:28.964Z,59.40
2017-07-14T08:40:55.453Z,59.40
2017-07-14T08:43:21.902Z,60.20
2017-07-14T08:45:48.407Z,57.90
2017-07-14T08:48:14.841Z,59.00
2017-07-14T08:50:42.072Z,56.60
2017-07-14T08:53:08.522Z,56.60
2017-07-14T08:55:35.713Z,56.10
2017-07-14T08:58:02.255Z,56.00
2017-07-14T09:00:28.668Z,58.30
2017-07-14T09:02:55.147Z,58.70
2017-07-14T09:05:21.574Z,57.00
2017-07-14T09:07:48.042Z,58.70
2017-07-14T09:10:14.492Z,57.90
2017-07-14T09:12:40.969Z,59.10
2017-07-14T09:15:07.407Z,56.10
2017-07-14T09:17:33.905Z,56.20
2017-07-14T09:20:00.339Z,57.00
2017-07-14T09:22:26.854Z,58.50
2017-07-14T09:24:53.270Z,57.80
2017-07-14T09:27:20.507Z,57.50
2017-07-14T09:29:47.713Z,58.50
2017-07-14T09:32:14.204Z,58.50
2017-07-14T09:34:40.648Z,58.80
2017-07-14T09:37:07.853Z,57.40
2017-07-14T09:39:34.300Z,57.40
2017-07-14T09:42:00.784Z,55.60
2017-07-14T09:44:27.208Z,55.90
2017-07-14T09:46:53.700Z,56.30
2017-07-14T09:49:20.174Z,56.00
2017-07-14T09:51:46.706Z,58.50
2017-07-14T09:54:13.184Z,56.70
2017-07-14T09:56:39.587Z,57.50
2017-07-14T09:59:06.107Z,56.00
2017-07-14T10:01:32.526Z,56.40
2017-07-14T10:03:59.738Z,54.50
2017-07-14T10:06:26.285Z,54.40
2017-07-14T10:08:52.767Z,54.80
2017-07-14T10:11:19.300Z,56.50
2017-07-14T10:13:45.716Z,55.10
2017-07-14T10:16:12.971Z,54.80
2017-07-14T10:18:39.389Z,55.00
2017-07-14T10:21:05.900Z,55.20
2017-07-14T10:23:32.353Z,54.80
2017-07-14T10:25:58.827Z,57.10
2017-07-14T10:28:25.317Z,58.60
2017-07-14T10:30:51.817Z,55.70
2017-07-14T10:33:18.418Z,55.20
2017-07-14T10:35:44.840Z,53.90
2017-07-14T10:38:12.033Z,55.40
2017-07-14T10:40:38.509Z,55.50
2017-07-14T10:43:04.971Z,56.50
2017-07-14T10:45:31.478Z,54.40
2017-07-14T10:47:58.713Z,52.00
2017-07-14T10:50:25.231Z,52.00
2017-07-14T10:52:51.657Z,53.60
2017-07-14T10:55:18.143Z,55.30
2017-07-14T10:57:44.696Z,53.00
2017-07-14T11:00:11.886Z,55.80
2017-07-14T11:02:38.296Z,55.80
2017-07-14T11:05:04.774Z,52.50
2017-07-14T11:07:31.265Z,53.40
2017-07-14T11:09:57.787Z,53.60
2017-07-14T11:12:24.312Z,52.10
2017-07-14T11:14:50.834Z,53.90
2017-07-14T11:17:18.001Z,50.60
2017-07-14T11:19:45.206Z,50.60
2017-07-14T11:22:11.653Z,50.60
2017-07-14T11:24:38.162Z,51.20
2017-07-14T11:27:04.563Z,50.00
2017-07-14T11:29:31.062Z,50.90
2017-07-14T11:31:58.261Z,49.10
2017-07-14T11:34:24.709Z,49.10
2017-07-14T11:36:51.188Z,50.60
2017-07-14T11:39:18.349Z,49.40
2017-07-14T11:41:45.581Z,49.60
2017-07-14T11:44:12.733Z,51.60
2017-07-14T11:46:39.241Z,51.50
2017-07-14T11:49:05.752Z,51.60
2017-07-14T11:51:32.310Z,51.10
2017-07-14T11:53:58.777Z,51.70
2017-07-14T11:56:25.191Z,50.60
2017-07-14T11:58:51.612Z,51.70
2017-07-14T12:01:18.001Z,54.90
2017-07-14T12:03:44.421Z,50.50
2017-07-14T12:06:11.580Z,50.90
2017-07-14T12:08:38.016Z,50.90
2017-07-14T12:11:04.417Z,51.30
2017-07-14T12:13:30.845Z,52.10
2017-07-14T12:15:57.281Z,49.70
2017-07-14T12:18:23.716Z,49.30
2017-07-14T12:20:50.101Z,50.20
2017-07-14T12:23:16.493Z,50.50
2017-07-14T12:25:43.660Z,52.30
2017-07-14T12:28:10.053Z,52.20
2017-07-14T12:30:36.430Z,50.60
2017-07-14T12:33:02.853Z,50.70
2017-07-14T12:35:29.273Z,51.60
2017-07-14T12:37:56.389Z,52.20
2017-07-14T12:40:22.802Z,52.20
2017-07-14T12:42:49.199Z,52.70
2017-07-14T12:45:16.366Z,52.10
2017-07-14T12:47:42.768Z,52.70
2017-07-14T12:50:09.921Z,53.30
2017-07-14T12:52:37.085Z,52.40
2017-07-14T12:55:03.509Z,52.40
2017-07-14T12:57:30.624Z,53.00
2017-07-14T12:59:57.013Z,52.90
2017-07-14T13:02:23.432Z,52.40
2017-07-14T13:04:49.829Z,54.10
2017-07-14T13:07:16.257Z,53.60
2017-07-14T13:09:42.636Z,52.60
2017-07-14T13:12:09.062Z,52.60
2017-07-14T13:14:35.445Z,52.90
2017-07-14T13:17:01.824Z,53.10
2017-07-14T13:19:28.285Z,53.80
2017-07-14T13:21:54.674Z,54.00
2017-07-14T13:24:21.841Z,56.00
2017-07-14T13:26:48.231Z,56.00
2017-07-14T13:29:14.624Z,57.30
2017-07-14T13:31:41.040Z,59.10
2017-07-14T13:34:07.426Z,61.60
2017-07-14T13:36:33.840Z,62.30
2017-07-14T13:39:00.239Z,65.50
2017-07-14T13:41:26.666Z,64.30
2017-07-14T13:43:53.084Z,65.00
2017-07-14T13:46:20.205Z,71.20
2017-07-14T13:48:46.638Z,70.40
2017-07-14T13:51:13.025Z,72.90
2017-07-14T13:53:39.477Z,73.40
2017-07-14T13:56:05.874Z,76.50
2017-07-14T13:58:32.289Z,79.00
2017-07-14T14:00:59.456Z,81.10
2017-07-14T14:03:26.588Z,85.80
2017-07-14T14:05:53.001Z,85.50
2017-07-14T14:08:19.430Z,87.70
2017-07-14T14:10:45.822Z,87.30
2017-07-14T14:13:12.244Z,86.80
2017-07-14T14:15:38.661Z,88.00
2017-07-14T14:18:05.793Z,84.00
2017-07-14T14:20:32.980Z,83.50
2017-07-14T14:22:59.373Z,83.40
2017-07-14T14:25:25.774Z,81.60
2017-07-14T14:27:52.172Z,80.60
2017-07-14T14:30:18.601Z,79.20
2017-07-14T14:32:45.782Z,79.00
2017-07-14T14:35:12.215Z,79.00
2017-07-14T14:37:38.602Z,77.00
2017-07-14T14:40:04.972Z,80.30
2017-07-14T14:42:31.373Z,78.90
2017-07-14T14:44:58.493Z,74.40
2017-07-14T14:47:24.908Z,74.30
2017-07-14T14:49:51.301Z,75.50
2017-07-14T14:52:17.757Z,81.80
2017-07-14T14:54:44.152Z,78.40
2017-07-14T14:57:11.280Z,74.10
2017-07-14T14:59:37.684Z,74.00
2017-07-14T15:02:04.084Z,77.80
2017-07-14T15:04:30.468Z,75.60
2017-07-14T15:06:56.869Z,73.80
2017-07-14T15:09:23.257Z,74.60
2017-07-14T15:11:50.537Z,72.80
2017-07-14T15:14:31.849Z,72.80
2017-07-14T15:16:58.269Z,74.10
2017-07-14T15:19:24.817Z,72.50
2017-07-14T15:21:51.265Z,78.00
2017-07-14T15:24:17.639Z,75.30
2017-07-14T15:26:44.099Z,72.30
2017-07-14T15:29:10.476Z,70.80
2017-07-14T15:31:36.909Z,71.60
2017-07-14T15:34:03.296Z,71.00
2017-07-14T15:36:29.671Z,69.50
2017-07-14T15:38:56.076Z,71.20
2017-07-14T15:41:22.487Z,73.60
2017-07-14T15:43:49.012Z,71.20
2017-07-14T15:46:15.438Z,69.40
2017-07-14T15:48:41.849Z,70.30
2017-07-14T15:51:09.004Z,70.60
2017-07-14T15:53:36.133Z,70.00
2017-07-14T15:56:02.556Z,70.00
2017-07-14T15:58:28.947Z,68.40
2017-07-14T16:00:55.364Z,69.50
2017-07-14T16:03:21.749Z,71.00
2017-07-14T16:05:48.132Z,72.60
2017-07-14T16:08:14.545Z,71.50
2017-07-14T16:10:41.680Z,71.70
2017-07-14T16:13:08.064Z,70.90
2017-07-14T16:15:34.480Z,70.50
2017-07-14T16:18:00.989Z,72.30
2017-07-14T16:20:27.418Z,71.60
2017-07-14T16:22:53.830Z,73.30
2017-07-14T16:25:20.377Z,74.10
2017-07-14T16:27:46.781Z,74.00
2017-07-14T16:30:13.169Z,73.30
2017-07-14T16:32:40.321Z,73.80
2017-07-14T16:35:07.456Z,72.60
2017-07-14T16:37:33.880Z,72.60
2017-07-14T16:40:00.277Z,73.80
2017-07-14T16:42:26.696Z,76.10
2017-07-14T16:44:53.137Z,73.30
2017-07-14T16:47:19.521Z,74.60
2017-07-14T16:49:46.656Z,73.50
2017-07-14T16:52:13.055Z,73.50
2017-07-14T16:54:39.487Z,74.30
2017-07-14T16:57:05.908Z,73.80
2017-07-14T16:59:32.284Z,75.00
2017-07-14T17:01:58.703Z,74.80
2017-07-14T17:04:25.113Z,75.70
2017-07-14T17:06:51.548Z,74.80
2017-07-14T17:09:17.937Z,75.10
2017-07-14T17:11:45.048Z,75.30
2017-07-14T17:14:11.458Z,75.30
2017-07-14T17:16:37.840Z,75.60
2017-07-14T17:19:04.972Z,76.10
2017-07-14T17:21:31.348Z,76.10
2017-07-14T17:23:57.853Z,74.70
2017-07-14T17:26:24.227Z,74.70
2017-07-14T17:28:50.600Z,75.40
2017-07-14T17:31:17.023Z,76.60
2017-07-14T17:33:43.389Z,76.30
2017-07-14T17:36:10.530Z,77.40
2017-07-14T17:38:37.677Z,80.50
2017-07-14T17:41:04.076Z,79.90
2017-07-14T17:43:30.489Z,80.50
2017-07-14T17:45:56.906Z,81.10
2017-07-14T17:48:23.341Z,81.30
2017-07-14T17:50:49.761Z,83.10
2017-07-14T17:53:16.152Z,84.60
2017-07-14T17:55:43.180Z,84.90
2017-07-14T17:58:09.599Z,86.50
2017-07-14T18:00:36.021Z,85.80
2017-07-14T18:03:02.472Z,85.70
2017-07-14T18:05:28.855Z,89.00
2017-07-14T18:07:55.225Z,89.70
2017-07-14T18:10:21.640Z,89.80
2017-07-14T18:12:48.031Z,89.30
2017-07-14T18:15:14.493Z,89.20
2017-07-14T18:17:41.623Z,90.30
2017-07-14T18:20:08.788Z,90.80
2017-07-14T18:22:35.928Z,91.00
2017-07-14T18:25:02.296Z,91.00
2017-07-14T18:27:28.693Z,91.50
2017-07-14T18:29:55.846Z,90.60
2017-07-14T18:32:22.983Z,91.60
2017-07-14T18:34:49.529Z,91.30
2017-07-14T18:37:16.669Z,90.80
2017-07-14T18:39:43.064Z,90.70
2017-07-14T18:42:09.496Z,91.00
2017-07-14T18:44:35.881Z,90.80
2017-07-14T18:47:03.164Z,90.60
2017-07-14T18:49:29.558Z,90.60
2017-07-14T18:51:55.961Z,91.20
2017-07-14T18:54:22.380Z,90.90
2017-07-14T18:56:48.769Z,91.00
2017-07-14T18:59:15.929Z,89.60
2017-07-14T19:01:42.989Z,89.60
2017-07-14T19:04:09.368Z,88.70
2017-07-14T19:06:35.798Z,89.30
2017-07-14T19:09:02.272Z,89.10
2017-07-14T19:11:28.682Z,89.90
2017-07-14T19:13:55.089Z,90.20
2017-07-14T19:16:21.474Z,90.80
2017-07-14T19:18:48.004Z,91.00
2017-07-14T19:21:14.417Z,91.00
2017-07-14T19:23:41.552Z,91.60
2017-07-14T19:26:07.998Z,91.10
2017-07-14T19:28:34.384Z,90.10
2017-07-14T19:31:00.809Z,90.10
2017-07-14T19:33:27.189Z,89.10
2017-07-14T19:35:53.605Z,86.50
2017-07-14T19:38:19.988Z,84.00
2017-07-14T19:40:46.376Z,84.60
2017-07-14T19:43:12.876Z,85.40
2017-07-14T19:45:39.256Z,86.60
2017-07-14T19:48:05.647Z,86.50
2017-07-14T19:50:32.055Z,88.00
2017-07-14T19:52:58.600Z,86.10
2017-07-14T19:55:25.013Z,86.40
2017-07-14T19:57:51.404Z,85.50
2017-07-14T20:00:17.823Z,86.90
2017-07-14T20:02:44.231Z,85.50
2017-07-14T20:05:10.613Z,86.90
2017-07-14T20:07:37.027Z,87.40
2017-07-14T20:10:03.460Z,86.20
2017-07-14T20:12:29.849Z,85.90
2017-07-14T20:14:56.234Z,85.30
2017-07-14T20:17:22.645Z,87.50
2017-07-14T20:19:49.048Z,89.60
2017-07-14T20:22:15.497Z,90.10
2017-07-14T20:24:41.873Z,89.90
2017-07-14T20:27:08.301Z,87.60
2017-07-14T20:29:34.693Z,88.00
2017-07-14T20:32:01.968Z,88.10
2017-07-14T20:34:28.366Z,88.80
2017-07-14T20:36:54.775Z,89.00
2017-07-14T20:39:21.967Z,89.20
2017-07-14T20:41:48.349Z,89.20
2017-07-14T20:44:15.621Z,90.00
2017-07-14T20:46:42.001Z,89.20
2017-07-14T20:49:08.388Z,88.10
2017-07-14T20:51:34.808Z,86.60
2017-07-14T20:54:01.273Z,87.00
2017-07-14T20:56:27.648Z,87.80
2017-07-14T20:58:54.029Z,87.60
2017-07-14T21:01:20.432Z,88.30
2017-07-14T21:03:46.820Z,89.60
2017-07-14T21:06:13.233Z,89.20
2017-07-14T21:08:39.653Z,89.50
2017-07-14T21:11:06.035Z,89.80
2017-07-14T21:13:32.468Z,90.80
2017-07-14T21:15:58.861Z,90.90
2017-07-14T21:18:25.277Z,91.10
2017-07-14T21:20:51.689Z,87.50
2017-07-14T21:23:18.115Z,87.70
2017-07-14T21:25:44.492Z,88.20
2017-07-14T21:28:10.919Z,87.90
2017-07-14T21:30:37.320Z,88.50
2017-07-14T21:33:04.459Z,87.20
2017-07-14T21:35:30.873Z,87.20
2017-07-14T21:37:57.833Z,85.40
2017-07-14T21:40:24.245Z,86.60
2017-07-14T21:42:50.666Z,86.90
2017-07-14T21:45:17.043Z,88.00
2017-07-14T21:47:44.204Z,86.30
2017-07-14T21:50:11.360Z,87.80
2017-07-14T21:52:37.745Z,87.80
2017-07-14T21:55:04.146Z,87.10
2017-07-14T21:57:30.536Z,87.90
2017-07-14T21:59:57.689Z,87.60
2017-07-14T22:02:25.065Z,88.00
2017-07-14T22:04:51.456Z,88.00
2017-07-14T22:07:17.820Z,87.60
2017-07-14T22:09:44.986Z,88.60
2017-07-14T22:12:11.409Z,88.40
2017-07-14T22:14:37.792Z,86.00
2017-07-14T22:17:04.189Z,80.80
2017-07-14T22:19:30.608Z,80.20
2017-07-14T22:21:57.029Z,81.30
2017-07-14T22:24:24.144Z,81.00
2017-07-14T22:26:50.571Z,80.80
2017-07-14T22:29:16.967Z,80.10
2017-07-14T22:31:43.396Z,81.10
2017-07-14T22:34:09.792Z,81.00
2017-07-14T22:36:36.949Z,83.80
2017-07-14T22:39:04.685Z,83.90
2017-07-14T22:41:31.095Z,83.80
2017-07-14T22:43:57.484Z,84.90
2017-07-14T22:46:24.652Z,85.30
2017-07-14T22:48:51.040Z,85.40
2017-07-14T22:51:17.417Z,86.40
2017-07-14T22:53:44.544Z,87.00
2017-07-14T22:56:11.662Z,87.10
2017-07-14T22:58:38.101Z,87.00
2017-07-14T23:01:05.362Z,87.50
2017-07-14T23:03:31.785Z,86.90
2017-07-14T23:05:58.167Z,86.70
2017-07-14T23:08:24.585Z,87.90
2017-07-14T23:10:51.011Z,87.40
2017-07-14T23:13:17.401Z,88.60
2017-07-14T23:15:43.779Z,88.80
2017-07-14T23:18:10.225Z,88.70
2017-07-14T23:20:36.621Z,88.30
2017-07-14T23:23:03.035Z,85.10
2017-07-14T23:25:29.436Z,83.00
2017-07-14T23:27:55.866Z,85.20
2017-07-14T23:30:22.380Z,78.40
2017-07-14T23:32:48.780Z,79.70
2017-07-14T23:35:15.164Z,80.40
2017-07-14T23:37:41.626Z,80.20
2017-07-14T23:40:08.013Z,82.00
2017-07-14T23:42:34.402Z,79.50
2017-07-14T23:45:02.401Z,76.20
2017-07-14T23:47:29.545Z,75.20
2017-07-14T23:49:56.692Z,77.40
2017-07-14T23:52:23.862Z,80.70
2017-07-14T23:54:50.232Z,79.80
2017-07-14T23:57:16.626Z,82.80
2017-07-14T23:59:43.043Z,83.00
